createdAt,value
2017-10-21T00:01:40.405Z,64.40
2017-10-21T00:04:08.043Z,64.50
2017-10-21T00:06:35.637Z,64.40
2017-10-21T00:09:04.054Z,64.00
2017-10-21T00:11:31.649Z,64.40
2017-10-21T00:13:59.288Z,64.40
2017-10-21T00:16:26.885Z,64.50
2017-10-21T00:18:54.519Z,64.60
2017-10-21T00:21:22.113Z,64.60
2017-10-21T00:23:49.753Z,64.60
2017-10-21T00:26:17.343Z,64.70
2017-10-21T00:28:44.979Z,64.70
2017-10-21T00:31:12.762Z,64.80
2017-10-21T00:33:40.398Z,64.80
2017-10-21T00:36:07.991Z,64.80
2017-10-21T00:38:36.396Z,65.00
2017-10-21T00:41:04.761Z,65.00
2017-10-21T00:43:33.162Z,65.00
2017-10-21T00:46:00.753Z,64.80
2017-10-21T00:48:28.399Z,65.00
2017-10-21T00:50:55.988Z,65.10
2017-10-21T00:53:23.626Z,65.20
2017-10-21T00:55:51.222Z,65.20
2017-10-21T00:58:18.898Z,65.50
2017-10-21T01:00:48.008Z,66.10
2017-10-21T01:03:16.421Z,66.30
2017-10-21T01:05:44.021Z,66.20
2017-10-21T01:08:11.661Z,67.20
2017-10-21T01:10:39.252Z,66.60
2017-10-21T01:13:06.901Z,66.90
2017-10-21T01:15:34.497Z,67.10
2017-10-21T01:18:02.853Z,67.30
2017-10-21T01:20:30.490Z,67.30
2017-10-21T01:22:58.079Z,67.50
2017-10-21T01:25:25.717Z,67.50
2017-10-21T01:27:53.305Z,67.70
2017-10-21T01:30:21.723Z,67.90
2017-10-21T01:32:49.324Z,67.90
2017-10-21T01:35:16.969Z,68.20
2017-10-21T01:37:44.560Z,68.30
2017-10-21T01:40:12.972Z,68.30
2017-10-21T01:42:41.340Z,68.40
2017-10-21T01:45:09.746Z,68.60
2017-10-21T01:47:37.337Z,68.50
2017-10-21T01:50:04.977Z,68.70
2017-10-21T01:52:32.570Z,68.80
2017-10-21T01:55:00.204Z,69.10
2017-10-21T01:57:27.805Z,69.30
2017-10-21T01:59:55.442Z,69.30
2017-10-21T02:02:23.037Z,69.40
2017-10-21T02:04:51.434Z,69.80
2017-10-21T02:07:19.784Z,69.80
2017-10-21T02:09:47.414Z,69.60
2017-10-21T02:12:15.165Z,69.80
2017-10-21T02:14:42.800Z,70.00
2017-10-21T02:17:11.161Z,70.20
2017-10-21T02:19:39.561Z,70.20
2017-10-21T02:22:07.930Z,70.30
2017-10-21T02:24:36.336Z,70.20
2017-10-21T02:27:03.940Z,70.20
2017-10-21T02:29:31.587Z,70.30
2017-10-21T02:31:59.172Z,70.40
2017-10-21T02:34:27.451Z,70.50
2017-10-21T02:36:55.045Z,70.40
2017-10-21T02:39:23.409Z,70.70
2017-10-21T02:41:51.813Z,70.70
2017-10-21T02:44:19.406Z,70.50
2017-10-21T02:46:47.040Z,70.60
2017-10-21T02:49:14.640Z,70.60
2017-10-21T02:51:42.286Z,70.70
2017-10-21T02:54:09.884Z,70.10
2017-10-21T02:56:38.308Z,70.80
2017-10-21T02:59:05.913Z,70.80
2017-10-21T03:01:33.556Z,70.70
2017-10-21T03:04:01.148Z,70.90
2017-10-21T03:06:29.554Z,71.20
2017-10-21T03:08:57.915Z,71.10
2017-10-21T03:11:26.434Z,71.30
2017-10-21T03:13:54.036Z,71.00
2017-10-21T03:16:22.407Z,71.00
2017-10-21T03:18:50.049Z,71.10
2017-10-21T03:21:17.650Z,71.00
2017-10-21T03:23:45.293Z,71.00
2017-10-21T03:26:12.882Z,70.90
2017-10-21T03:28:41.277Z,70.40
2017-10-21T03:31:09.635Z,70.70
2017-10-21T03:33:38.043Z,71.80
2017-10-21T03:36:05.651Z,70.70
2017-10-21T03:38:33.293Z,70.80
2017-10-21T03:41:00.961Z,70.80
2017-10-21T03:43:28.605Z,70.80
2017-10-21T03:45:56.204Z,70.80
2017-10-21T03:48:23.846Z,70.70
2017-10-21T03:50:51.446Z,70.70
2017-10-21T03:53:19.085Z,70.70
2017-10-21T03:55:46.681Z,70.60
2017-10-21T03:58:15.082Z,70.60
2017-10-21T04:00:42.684Z,70.50
2017-10-21T04:03:10.320Z,70.50
2017-10-21T04:05:37.912Z,70.50
2017-10-21T04:08:05.553Z,70.50
2017-10-21T04:10:33.152Z,70.80
2017-10-21T04:13:02.288Z,70.90
2017-10-21T04:15:29.884Z,71.00
2017-10-21T04:17:57.520Z,71.00
2017-10-21T04:20:25.108Z,71.30
2017-10-21T04:22:52.741Z,71.30
2017-10-21T04:25:20.336Z,71.70
2017-10-21T04:27:47.934Z,71.40
2017-10-21T04:30:16.342Z,72.00
2017-10-21T04:32:43.944Z,72.00
2017-10-21T04:35:11.584Z,72.00
2017-10-21T04:37:39.178Z,72.00
2017-10-21T04:40:06.825Z,72.30
2017-10-21T04:42:34.419Z,72.30
2017-10-21T04:45:02.837Z,72.60
2017-10-21T04:47:30.431Z,72.50
2017-10-21T04:49:58.081Z,72.80
2017-10-21T04:52:25.692Z,72.90
2017-10-21T04:54:54.094Z,73.10
2017-10-21T04:57:21.726Z,73.10
2017-10-21T04:59:50.124Z,73.50
2017-10-21T05:02:17.726Z,73.40
2017-10-21T05:04:45.367Z,73.30
2017-10-21T05:07:12.966Z,73.60
2017-10-21T05:09:41.369Z,73.60
2017-10-21T05:12:09.745Z,73.60
2017-10-21T05:14:38.157Z,73.60
2017-10-21T05:17:05.760Z,73.60
2017-10-21T05:19:33.405Z,74.00
2017-10-21T05:22:00.995Z,73.80
2017-10-21T05:24:30.137Z,73.80
2017-10-21T05:26:57.727Z,73.80
2017-10-21T05:29:25.377Z,74.30
2017-10-21T05:31:52.978Z,74.40
2017-10-21T05:34:21.377Z,74.70
2017-10-21T05:36:48.980Z,74.60
2017-10-21T05:39:16.613Z,74.90
2017-10-21T05:41:44.214Z,74.90
2017-10-21T05:44:11.843Z,74.80
2017-10-21T05:46:39.452Z,74.10
2017-10-21T05:49:07.109Z,74.20
2017-10-21T05:51:34.704Z,73.80
2017-10-21T05:54:03.109Z,74.10
2017-10-21T05:56:30.708Z,74.10
2017-10-21T05:58:58.348Z,74.10
2017-10-21T06:01:25.948Z,74.30
2017-10-21T06:03:53.580Z,74.60
2017-10-21T06:06:21.172Z,74.40
2017-10-21T06:08:48.813Z,74.10
2017-10-21T06:11:16.420Z,73.90
2017-10-21T06:13:44.062Z,74.60
2017-10-21T06:16:11.660Z,74.80
2017-10-21T06:18:39.297Z,74.70
2017-10-21T06:21:07.662Z,74.80
2017-10-21T06:23:36.285Z,74.90
2017-10-21T06:26:03.890Z,74.80
2017-10-21T06:28:31.498Z,74.70
2017-10-21T06:30:59.131Z,74.60
2017-10-21T06:33:26.728Z,75.00
2017-10-21T06:35:54.380Z,75.10
2017-10-21T06:38:21.984Z,74.80
2017-10-21T06:40:49.631Z,75.30
2017-10-21T06:43:17.228Z,74.80
2017-10-21T06:45:44.882Z,74.70
2017-10-21T06:48:12.479Z,74.70
2017-10-21T06:50:40.882Z,74.90
2017-10-21T06:53:08.487Z,74.90
2017-10-21T06:55:36.147Z,75.10
2017-10-21T06:58:03.753Z,75.10
2017-10-21T07:00:31.445Z,75.10
2017-10-21T07:02:59.061Z,75.10
2017-10-21T07:05:27.472Z,75.10
2017-10-21T07:07:55.077Z,75.10
2017-10-21T07:10:22.723Z,75.20
2017-10-21T07:12:50.327Z,75.40
2017-10-21T07:15:18.733Z,75.20
2017-10-21T07:17:46.343Z,75.20
2017-10-21T07:20:13.981Z,75.40
2017-10-21T07:22:41.582Z,75.40
2017-10-21T07:25:10.117Z,75.40
2017-10-21T07:27:37.717Z,75.30
2017-10-21T07:30:06.135Z,75.20
2017-10-21T07:32:33.779Z,75.50
2017-10-21T07:35:02.141Z,75.60
2017-10-21T07:37:29.775Z,75.60
2017-10-21T07:39:57.377Z,76.20
2017-10-21T07:42:25.780Z,76.70
2017-10-21T07:44:53.386Z,76.70
2017-10-21T07:47:21.036Z,76.70
2017-10-21T07:49:48.642Z,76.50
2017-10-21T07:52:17.048Z,76.90
2017-10-21T07:54:44.648Z,76.80
2017-10-21T07:57:12.324Z,77.10
2017-10-21T07:59:39.912Z,76.80
2017-10-21T08:02:08.268Z,76.60
2017-10-21T08:04:35.921Z,76.50
2017-10-21T08:07:03.517Z,76.40
2017-10-21T08:09:31.152Z,76.00
2017-10-21T08:11:59.524Z,76.40
2017-10-21T08:14:27.165Z,76.40
2017-10-21T08:16:54.763Z,76.40
2017-10-21T08:19:23.170Z,76.20
2017-10-21T08:21:50.804Z,77.00
2017-10-21T08:24:19.210Z,76.00
2017-10-21T08:26:46.817Z,76.00
2017-10-21T08:29:14.462Z,76.60
2017-10-21T08:31:42.073Z,76.80
2017-10-21T08:34:10.480Z,76.30
2017-10-21T08:36:38.082Z,76.30
2017-10-21T08:39:06.500Z,76.50
2017-10-21T08:41:34.860Z,76.30
2017-10-21T08:44:02.504Z,76.40
2017-10-21T08:46:30.100Z,76.30
2017-10-21T08:48:58.508Z,76.20
2017-10-21T08:51:26.132Z,76.20
2017-10-21T08:53:54.546Z,77.70
2017-10-21T08:56:22.149Z,76.90
2017-10-21T08:58:49.761Z,77.10
2017-10-21T09:01:17.396Z,77.20
2017-10-21T09:03:45.758Z,76.40
2017-10-21T09:06:13.397Z,76.40
2017-10-21T09:08:41.000Z,76.90
2017-10-21T09:11:09.453Z,77.20
2017-10-21T09:13:37.052Z,77.00
2017-10-21T09:16:04.695Z,76.90
2017-10-21T09:18:33.061Z,77.60
2017-10-21T09:21:00.702Z,76.80
2017-10-21T09:23:28.306Z,76.80
2017-10-21T09:25:56.710Z,76.90
2017-10-21T09:28:24.300Z,76.80
2017-10-21T09:30:51.943Z,76.70
2017-10-21T09:33:19.541Z,76.70
2017-10-21T09:35:47.181Z,76.60
2017-10-21T09:38:14.778Z,76.60
2017-10-21T09:40:43.181Z,75.60
2017-10-21T09:43:11.540Z,74.90
2017-10-21T09:45:40.144Z,74.50
2017-10-21T09:48:08.501Z,74.00
2017-10-21T09:50:36.865Z,73.40
2017-10-21T09:53:04.499Z,73.40
2017-10-21T09:55:32.307Z,73.00
2017-10-21T09:58:00.713Z,73.50
2017-10-21T10:00:29.069Z,73.40
2017-10-21T10:02:56.708Z,73.30
2017-10-21T10:05:24.305Z,73.40
2017-10-21T10:07:52.705Z,73.90
2017-10-21T10:10:20.297Z,73.70
2017-10-21T10:12:47.934Z,74.40
2017-10-21T10:15:15.528Z,74.40
2017-10-21T10:17:43.174Z,74.60
2017-10-21T10:20:10.767Z,74.70
2017-10-21T10:22:38.414Z,74.50
2017-10-21T10:25:06.016Z,73.20
2017-10-21T10:27:34.419Z,70.00
2017-10-21T10:30:02.022Z,70.00
2017-10-21T10:32:31.262Z,69.50
2017-10-21T10:34:59.623Z,70.00
2017-10-21T10:37:27.987Z,70.50
2017-10-21T10:39:56.384Z,71.10
2017-10-21T10:42:24.744Z,71.00
2017-10-21T10:44:52.376Z,70.90
2017-10-21T10:47:19.974Z,69.50
2017-10-21T10:49:49.107Z,68.80
2017-10-21T10:52:16.704Z,68.70
2017-10-21T10:54:44.339Z,68.60
2017-10-21T10:57:11.929Z,68.80
2017-10-21T10:59:39.521Z,69.10
2017-10-21T11:02:07.957Z,69.20
2017-10-21T11:04:35.547Z,68.30
2017-10-21T11:07:03.945Z,67.60
2017-10-21T11:09:32.304Z,67.50
2017-10-21T11:11:59.943Z,67.40
2017-10-21T11:14:27.540Z,70.60
2017-10-21T11:16:55.184Z,68.70
2017-10-21T11:19:22.769Z,72.30
2017-10-21T11:21:51.422Z,71.00
2017-10-21T11:24:19.017Z,71.00
2017-10-21T11:26:47.414Z,68.40
2017-10-21T11:29:15.938Z,69.10
2017-10-21T11:31:43.579Z,69.00
2017-10-21T11:34:11.457Z,68.10
2017-10-21T11:36:39.120Z,69.90
2017-10-21T11:39:06.717Z,68.20
2017-10-21T11:41:34.354Z,68.30
2017-10-21T11:44:01.945Z,68.20
2017-10-21T11:46:31.089Z,66.40
2017-10-21T11:48:58.680Z,66.40
2017-10-21T11:51:26.327Z,67.90
2017-10-21T11:53:53.920Z,68.30
2017-10-21T11:56:23.061Z,69.10
2017-10-21T11:58:50.665Z,69.10
2017-10-21T12:01:18.269Z,69.10
2017-10-21T12:03:46.677Z,68.80
2017-10-21T12:06:14.271Z,68.80
2017-10-21T12:08:41.900Z,69.00
2017-10-21T12:11:09.571Z,69.00
2017-10-21T12:13:37.233Z,68.80
2017-10-21T12:16:04.829Z,68.90
2017-10-21T12:18:32.461Z,68.60
2017-10-21T12:21:00.061Z,68.80
2017-10-21T12:23:28.473Z,69.30
2017-10-21T12:25:56.262Z,68.50
2017-10-21T12:28:23.897Z,68.40
2017-10-21T12:30:51.493Z,68.60
2017-10-21T12:33:19.130Z,68.90
2017-10-21T12:35:46.729Z,69.10
2017-10-21T12:38:14.361Z,69.20
2017-10-21T12:40:41.954Z,69.50
2017-10-21T12:43:09.694Z,69.70
2017-10-21T12:45:37.283Z,70.20
2017-10-21T12:48:06.441Z,71.10
2017-10-21T12:50:34.038Z,71.10
2017-10-21T12:53:01.625Z,70.90
2017-10-21T12:55:30.025Z,70.90
2017-10-21T12:57:57.723Z,70.80
2017-10-21T13:00:25.362Z,70.80
2017-10-21T13:02:52.951Z,71.30
2017-10-21T13:05:20.592Z,71.20
2017-10-21T13:07:48.183Z,71.10
2017-10-21T13:10:15.773Z,71.10
2017-10-21T13:12:44.173Z,68.50
2017-10-21T13:15:11.773Z,68.30
2017-10-21T13:17:39.421Z,67.90
2017-10-21T13:20:07.025Z,68.00
2017-10-21T13:22:34.664Z,69.10
2017-10-21T13:25:02.247Z,69.50
2017-10-21T13:27:29.837Z,69.80
2017-10-21T13:29:57.484Z,69.90
2017-10-21T13:32:25.839Z,69.70
2017-10-21T13:34:53.464Z,69.60
2017-10-21T13:37:21.099Z,69.50
2017-10-21T13:39:49.504Z,69.50
2017-10-21T13:42:17.089Z,69.50
2017-10-21T13:44:44.680Z,69.50
2017-10-21T13:47:13.091Z,70.10
2017-10-21T13:49:40.677Z,69.40
2017-10-21T13:52:08.269Z,69.20
2017-10-21T13:54:36.674Z,69.10
2017-10-21T13:57:05.069Z,69.20
2017-10-21T13:59:32.702Z,69.10
2017-10-21T14:02:01.067Z,69.90
2017-10-21T14:04:30.213Z,69.00
2017-10-21T14:06:57.862Z,69.00
2017-10-21T14:09:26.221Z,68.90
2017-10-21T14:11:54.588Z,69.60
2017-10-21T14:14:23.729Z,68.70
2017-10-21T14:16:51.323Z,68.60
2017-10-21T14:19:18.953Z,68.60
2017-10-21T14:21:46.549Z,68.60
2017-10-21T14:24:14.181Z,68.70
2017-10-21T14:26:48.533Z,68.70
2017-10-21T14:29:16.129Z,68.60
2017-10-21T14:31:44.533Z,68.60
2017-10-21T14:34:12.164Z,68.50
2017-10-21T14:36:40.574Z,69.20
2017-10-21T14:39:08.171Z,68.40
2017-10-21T14:41:35.812Z,68.20
2017-10-21T14:44:03.426Z,68.20
2017-10-21T14:46:31.061Z,68.40
2017-10-21T14:48:58.657Z,68.50
2017-10-21T14:51:27.061Z,68.40
2017-10-21T14:53:54.652Z,68.40
2017-10-21T14:56:22.244Z,68.50
2017-10-21T14:58:49.884Z,68.40
2017-10-21T15:01:17.636Z,68.50
2017-10-21T15:03:45.265Z,68.40
2017-10-21T15:06:12.895Z,68.60
2017-10-21T15:08:40.488Z,68.40
2017-10-21T15:11:08.128Z,68.50
2017-10-21T15:13:36.525Z,68.50
2017-10-21T15:16:04.169Z,68.50
2017-10-21T15:18:32.524Z,68.60
2017-10-21T15:21:00.120Z,68.50
2017-10-21T15:23:29.285Z,68.60
2017-10-21T15:25:56.874Z,68.50
2017-10-21T15:28:25.232Z,68.60
2017-10-21T15:30:52.869Z,68.60
2017-10-21T15:33:20.505Z,68.60
2017-10-21T15:35:48.858Z,68.60
2017-10-21T15:38:17.265Z,68.60
2017-10-21T15:40:44.864Z,68.60
2017-10-21T15:43:12.466Z,68.50
2017-10-21T15:45:40.878Z,68.60
2017-10-21T15:48:09.091Z,68.60
2017-10-21T15:50:37.457Z,68.70
2017-10-21T15:53:05.102Z,68.70
2017-10-21T15:55:32.692Z,68.70
2017-10-21T15:58:01.836Z,68.80
2017-10-21T16:00:29.480Z,68.70
2017-10-21T16:02:57.843Z,68.80
2017-10-21T16:05:26.208Z,69.80
2017-10-21T16:07:53.860Z,68.80
2017-10-21T16:10:21.505Z,68.90
2017-10-21T16:12:49.107Z,68.70
2017-10-21T16:15:17.521Z,68.60
2017-10-21T16:17:45.120Z,68.60
2017-10-21T16:20:12.754Z,68.60
2017-10-21T16:22:40.340Z,68.70
2017-10-21T16:25:07.973Z,68.70
2017-10-21T16:27:35.616Z,68.60
2017-10-21T16:30:03.987Z,68.70
2017-10-21T16:32:32.396Z,68.70
2017-10-21T16:34:59.988Z,68.80
2017-10-21T16:37:27.626Z,68.70
2017-10-21T16:39:55.216Z,68.80
2017-10-21T16:42:22.850Z,68.80
2017-10-21T16:44:50.502Z,68.80
2017-10-21T16:47:18.180Z,68.80
2017-10-21T16:49:45.773Z,68.80
2017-10-21T16:52:13.401Z,68.80
2017-10-21T16:54:41.044Z,68.80
2017-10-21T16:57:08.642Z,68.80
2017-10-21T16:59:36.992Z,68.90
2017-10-21T17:02:04.668Z,69.10
2017-10-21T17:04:32.326Z,69.20
2017-10-21T17:06:59.917Z,69.20
2017-10-21T17:09:29.015Z,69.40
2017-10-21T17:11:57.521Z,69.40
2017-10-21T17:14:25.884Z,69.50
2017-10-21T17:16:54.246Z,69.60
2017-10-21T17:19:21.881Z,69.60
2017-10-21T17:21:49.478Z,69.70
2017-10-21T17:24:17.872Z,69.70
2017-10-21T17:26:45.514Z,69.70
2017-10-21T17:29:13.114Z,69.80
2017-10-21T17:31:41.528Z,69.80
2017-10-21T17:34:09.135Z,69.90
2017-10-21T17:36:36.735Z,69.80
2017-10-21T17:39:04.374Z,69.50
2017-10-21T17:41:32.739Z,70.00
2017-10-21T17:44:01.140Z,69.50
2017-10-21T17:46:28.794Z,70.00
2017-10-21T17:48:57.159Z,70.10
2017-10-21T17:51:25.524Z,70.90
2017-10-21T17:53:53.172Z,70.10
2017-10-21T17:56:20.764Z,70.20
2017-10-21T17:58:49.182Z,70.30
2017-10-21T18:01:16.784Z,70.20
2017-10-21T18:03:44.419Z,70.20
2017-10-21T18:06:12.061Z,70.30
2017-10-21T18:08:39.704Z,70.30
2017-10-21T18:11:08.071Z,70.40
2017-10-21T18:13:36.440Z,70.40
2017-10-21T18:16:04.848Z,70.50
2017-10-21T18:18:32.441Z,70.40
2017-10-21T18:21:00.084Z,70.40
2017-10-21T18:23:27.680Z,70.50
2017-10-21T18:25:55.278Z,70.50
2017-10-21T18:28:23.671Z,70.50
2017-10-21T18:30:52.033Z,70.50
2017-10-21T18:33:20.472Z,71.00
2017-10-21T18:35:48.064Z,70.50
2017-10-21T18:38:15.658Z,70.60
2017-10-21T18:40:43.296Z,70.70
2017-10-21T18:43:11.654Z,70.50
2017-10-21T18:45:39.297Z,70.50
2017-10-21T18:48:06.941Z,70.60
2017-10-21T18:50:34.540Z,70.60
2017-10-21T18:53:03.111Z,70.70
2017-10-21T18:55:30.778Z,70.60
2017-10-21T18:57:58.429Z,70.60
2017-10-21T19:00:26.073Z,70.60
2017-10-21T19:02:53.693Z,70.60
2017-10-21T19:05:22.230Z,70.40
2017-10-21T19:07:49.847Z,70.30
2017-10-21T19:10:18.217Z,70.40
2017-10-21T19:12:46.686Z,70.40
2017-10-21T19:15:15.072Z,70.40
2017-10-21T19:17:43.484Z,70.30
2017-10-21T19:20:11.096Z,70.30
2017-10-21T19:22:38.736Z,70.40
2017-10-21T19:25:06.329Z,70.50
2017-10-21T19:27:35.107Z,70.80
2017-10-21T19:30:02.765Z,70.80
2017-10-21T19:32:30.369Z,70.80
2017-10-21T19:34:58.886Z,70.80
2017-10-21T19:37:26.491Z,70.80
2017-10-21T19:39:54.852Z,71.10
2017-10-21T19:42:22.491Z,70.80
2017-10-21T19:44:50.086Z,70.80
2017-10-21T19:47:18.500Z,70.80
2017-10-21T19:49:46.125Z,70.80
2017-10-21T19:52:14.512Z,70.90
2017-10-21T19:54:42.166Z,70.90
2017-10-21T19:57:11.288Z,70.80
2017-10-21T19:59:39.652Z,70.70
2017-10-21T20:02:08.060Z,71.50
2017-10-21T20:04:35.655Z,70.70
2017-10-21T20:07:03.311Z,70.60
2017-10-21T20:09:30.987Z,70.60
2017-10-21T20:11:58.644Z,70.60
2017-10-21T20:14:26.291Z,70.50
2017-10-21T20:16:53.914Z,70.60
2017-10-21T20:19:22.353Z,70.60
2017-10-21T20:21:49.947Z,70.50
2017-10-21T20:24:18.360Z,70.70
2017-10-21T20:26:45.953Z,70.60
2017-10-21T20:29:13.604Z,70.50
2017-10-21T20:31:41.197Z,70.50
2017-10-21T20:34:09.556Z,70.60
2017-10-21T20:36:37.328Z,70.70
2017-10-21T20:39:04.934Z,70.60
2017-10-21T20:41:33.344Z,70.70
2017-10-21T20:44:00.946Z,70.60
2017-10-21T20:46:29.359Z,71.20
2017-10-21T20:48:56.957Z,70.60
2017-10-21T20:51:24.589Z,70.50
2017-10-21T20:53:52.195Z,70.60
2017-10-21T20:56:19.835Z,70.50
2017-10-21T20:58:47.488Z,70.60
2017-10-21T21:01:15.091Z,70.50
2017-10-21T21:03:44.197Z,70.70
2017-10-21T21:06:12.600Z,71.30
2017-10-21T21:08:40.959Z,70.60
2017-10-21T21:11:09.366Z,70.60
2017-10-21T21:13:36.968Z,70.60
2017-10-21T21:16:04.608Z,70.60
2017-10-21T21:18:32.211Z,70.70
2017-10-21T21:21:00.634Z,71.10
2017-10-21T21:23:28.229Z,71.10
2017-10-21T21:25:55.983Z,71.20
2017-10-21T21:28:23.590Z,71.40
2017-10-21T21:30:51.997Z,72.40
2017-10-21T21:33:19.588Z,71.60
2017-10-21T21:35:47.221Z,71.70
2017-10-21T21:38:14.816Z,71.80
2017-10-21T21:40:42.450Z,71.90
2017-10-21T21:43:10.038Z,72.20
2017-10-21T21:45:37.682Z,72.20
2017-10-21T21:48:05.273Z,72.20
2017-10-21T21:50:32.866Z,72.20
2017-10-21T21:53:01.266Z,72.00
2017-10-21T21:55:28.933Z,71.90
2017-10-21T21:57:56.538Z,71.80
2017-10-21T22:00:24.133Z,71.70
2017-10-21T22:02:52.537Z,71.50
2017-10-21T22:05:20.173Z,71.50
2017-10-21T22:07:48.537Z,70.50
2017-10-21T22:10:17.673Z,70.40
2017-10-21T22:12:45.307Z,70.40
2017-10-21T22:15:13.713Z,70.80
2017-10-21T22:17:41.374Z,70.70
2017-10-21T22:20:08.960Z,70.50
2017-10-21T22:22:36.549Z,70.50
2017-10-21T22:25:04.176Z,70.10
2017-10-21T22:27:31.769Z,70.40
2017-10-21T22:29:59.397Z,69.90
2017-10-21T22:32:27.035Z,70.40
2017-10-21T22:34:54.622Z,70.10
2017-10-21T22:37:22.262Z,70.00
2017-10-21T22:39:49.848Z,69.70
2017-10-21T22:42:17.441Z,69.70
2017-10-21T22:44:45.077Z,69.40
2017-10-21T22:47:12.704Z,69.20
2017-10-21T22:49:40.292Z,69.40
2017-10-21T22:52:07.926Z,69.20
2017-10-21T22:54:35.562Z,69.10
2017-10-21T22:57:03.972Z,70.20
2017-10-21T22:59:31.565Z,69.50
2017-10-21T23:01:59.156Z,69.00
2017-10-21T23:04:26.806Z,69.00
2017-10-21T23:06:54.449Z,69.40
2017-10-21T23:09:22.085Z,69.20
2017-10-21T23:11:49.678Z,69.10
2017-10-21T23:14:17.310Z,69.10
2017-10-21T23:16:44.896Z,69.20
2017-10-21T23:19:12.538Z,69.30
2017-10-21T23:21:40.141Z,69.50
2017-10-21T23:24:07.778Z,69.50
2017-10-21T23:26:35.424Z,69.70
2017-10-21T23:29:03.039Z,69.80
2017-10-21T23:31:31.401Z,70.20
2017-10-21T23:33:59.038Z,70.20
2017-10-21T23:36:26.629Z,70.40
2017-10-21T23:38:54.269Z,70.50
2017-10-21T23:41:21.852Z,70.60
2017-10-21T23:43:49.481Z,70.90
2017-10-21T23:46:17.130Z,71.00
2017-10-21T23:48:44.724Z,71.30
2017-10-21T23:51:12.360Z,71.30
2017-10-21T23:53:39.999Z,71.30
2017-10-21T23:56:07.593Z,71.50
2017-10-21T23:58:35.247Z,71.30
